sensor_id;sensor_type;location;lat;lon;timestamp;P1;durP1;ratioP1;P2;durP2;ratioP2
12603;SDS011;6367;52.508;13.284;2022-09-28T00:00:15;1.60;;;1.50;;
12603;SDS011;6367;52.508;13.284;2022-09-28T00:02:40;2.20;;;2.00;;
12603;SDS011;6367;52.508;13.284;2022-09-28T00:05:06;2.20;;;2.00;;
12603;SDS011;6367;52.508;13.284;2022-09-28T00:07:32;2.10;;;2.00;;
12603;SDS011;6367;52.508;13.284;2022-09-28T00:09:57;2.53;;;2.00;;
12603;SDS011;6367;52.508;13.284;2022-09-28T00:12:23;3.17;;;2.10;;
12603;SDS011;6367;52.508;13.284;2022-09-28T00:14:49;3.10;;;2.00;;
12603;SDS011;6367;52.508;13.284;2022-09-28T00:17:15;2.60;;;2.13;;
12603;SDS011;6367;52.508;13.284;2022-09-28T00:19:41;2.30;;;2.20;;
12603;SDS011;6367;52.508;13.284;2022-09-28T00:22:08;2.53;;;2.00;;
12603;SDS011;6367;52.508;13.284;2022-09-28T00:24:33;2.73;;;2.50;;
12603;SDS011;6367;52.508;13.284;2022-09-28T00:26:59;2.30;;;2.10;;
12603;SDS011;6367;52.508;13.284;2022-09-28T00:29:30;2.63;;;2.43;;
12603;SDS011;6367;52.508;13.284;2022-09-28T00:32:00;2.60;;;2.40;;
12603;SDS011;6367;52.508;13.284;2022-09-28T00:34:29;3.50;;;2.83;;
12603;SDS011;6367;52.508;13.284;2022-09-28T00:37:02;3.60;;;3.03;;
12603;SDS011;6367;52.508;13.284;2022-09-28T00:39:29;3.60;;;2.70;;
12603;SDS011;6367;52.508;13.284;2022-09-28T00:41:55;2.80;;;2.60;;
12603;SDS011;6367;52.508;13.284;2022-09-28T00:46:57;3.37;;;3.07;;
12603;SDS011;6367;52.508;13.284;2022-09-28T00:49:38;4.63;;;2.60;;
12603;SDS011;6367;52.508;13.284;2022-09-28T00:52:16;3.03;;;2.83;;
12603;SDS011;6367;52.508;13.284;2022-09-28T00:54:47;3.70;;;2.90;;
12603;SDS011;6367;52.508;13.284;2022-09-28T00:57:14;2.87;;;2.67;;
12603;SDS011;6367;52.508;13.284;2022-09-28T00:59:41;2.83;;;2.63;;
12603;SDS011;6367;52.508;13.284;2022-09-28T01:02:07;3.03;;;2.70;;
12603;SDS011;6367;52.508;13.284;2022-09-28T01:04:34;3.17;;;2.87;;
12603;SDS011;6367;52.508;13.284;2022-09-28T01:07:01;3.23;;;2.93;;
12603;SDS011;6367;52.508;13.284;2022-09-28T01:09:27;2.90;;;2.70;;
12603;SDS011;6367;52.508;13.284;2022-09-28T01:11:54;2.80;;;2.60;;
12603;SDS011;6367;52.508;13.284;2022-09-28T01:14:19;3.70;;;2.90;;
12603;SDS011;6367;52.508;13.284;2022-09-28T01:17:01;3.53;;;3.23;;
12603;SDS011;6367;52.508;13.284;2022-09-28T01:25:28;2.90;;;2.70;;
12603;SDS011;6367;52.508;13.284;2022-09-28T01:28:26;2.90;;;2.70;;
12603;SDS011;6367;52.508;13.284;2022-09-28T01:31:09;2.60;;;2.40;;
12603;SDS011;6367;52.508;13.284;2022-09-28T01:33:52;2.30;;;2.20;;
12603;SDS011;6367;52.508;13.284;2022-09-28T01:36:24;2.50;;;2.30;;
12603;SDS011;6367;52.508;13.284;2022-09-28T01:38:54;2.33;;;2.23;;
12603;SDS011;6367;52.508;13.284;2022-09-28T01:41:27;2.50;;;2.30;;
12603;SDS011;6367;52.508;13.284;2022-09-28T01:43:56;4.03;;;2.30;;
12603;SDS011;6367;52.508;13.284;2022-09-28T01:46:30;2.03;;;1.90;;
12603;SDS011;6367;52.508;13.284;2022-09-28T01:49:15;2.77;;;2.37;;
12603;SDS011;6367;52.508;13.284;2022-09-28T01:52:11;2.30;;;2.20;;
12603;SDS011;6367;52.508;13.284;2022-09-28T01:54:57;2.50;;;2.00;;
12603;SDS011;6367;52.508;13.284;2022-09-28T01:57:49;2.27;;;2.07;;
12603;SDS011;6367;52.508;13.284;2022-09-28T02:00:18;2.50;;;2.30;;
12603;SDS011;6367;52.508;13.284;2022-09-28T02:02:48;2.73;;;2.47;;
12603;SDS011;6367;52.508;13.284;2022-09-28T02:05:20;2.30;;;2.20;;
12603;SDS011;6367;52.508;13.284;2022-09-28T02:08:01;2.30;;;2.20;;
12603;SDS011;6367;52.508;13.284;2022-09-28T02:10:31;2.43;;;1.97;;
12603;SDS011;6367;52.508;13.284;2022-09-28T02:13:03;2.47;;;2.30;;
12603;SDS011;6367;52.508;13.284;2022-09-28T02:15:41;2.20;;;2.10;;
12603;SDS011;6367;52.508;13.284;2022-09-28T02:18:14;2.83;;;2.63;;
12603;SDS011;6367;52.508;13.284;2022-09-28T02:20:40;2.80;;;2.60;;
12603;SDS011;6367;52.508;13.284;2022-09-28T02:23:11;3.10;;;2.90;;
12603;SDS011;6367;52.508;13.284;2022-09-28T02:25:46;3.20;;;2.90;;
12603;SDS011;6367;52.508;13.284;2022-09-28T02:28:15;3.90;;;3.60;;
12603;SDS011;6367;52.508;13.284;2022-09-28T02:30:42;3.67;;;3.47;;
12603;SDS011;6367;52.508;13.284;2022-09-28T02:33:13;3.13;;;2.93;;
12603;SDS011;6367;52.508;13.284;2022-09-28T02:35:40;3.17;;;2.90;;
12603;SDS011;6367;52.508;13.284;2022-09-28T02:38:07;3.53;;;3.13;;
12603;SDS011;6367;52.508;13.284;2022-09-28T02:40:34;4.27;;;3.80;;
12603;SDS011;6367;52.508;13.284;2022-09-28T02:43:10;3.93;;;3.63;;
12603;SDS011;6367;52.508;13.284;2022-09-28T02:53:46;3.80;;;3.50;;
12603;SDS011;6367;52.508;13.284;2022-09-28T02:59:31;4.20;;;3.90;;
12603;SDS011;6367;52.508;13.284;2022-09-28T03:04:48;4.30;;;3.90;;
12603;SDS011;6367;52.508;13.284;2022-09-28T03:07:36;4.90;;;4.40;;
12603;SDS011;6367;52.508;13.284;2022-09-28T03:12:47;3.63;;;3.33;;
12603;SDS011;6367;52.508;13.284;2022-09-28T03:15:22;3.70;;;3.40;;
12603;SDS011;6367;52.508;13.284;2022-09-28T03:18:00;5.20;;;4.70;;
12603;SDS011;6367;52.508;13.284;2022-09-28T03:20:26;4.50;;;4.07;;
12603;SDS011;6367;52.508;13.284;2022-09-28T03:22:53;4.37;;;3.97;;
12603;SDS011;6367;52.508;13.284;2022-09-28T03:25:19;4.67;;;4.27;;
12603;SDS011;6367;52.508;13.284;2022-09-28T03:27:44;4.57;;;3.73;;
12603;SDS011;6367;52.508;13.284;2022-09-28T03:30:10;5.00;;;3.20;;
12603;SDS011;6367;52.508;13.284;2022-09-28T03:32:37;4.23;;;3.83;;
12603;SDS011;6367;52.508;13.284;2022-09-28T03:35:03;4.23;;;3.83;;
12603;SDS011;6367;52.508;13.284;2022-09-28T03:37:30;4.70;;;4.30;;
12603;SDS011;6367;52.508;13.284;2022-09-28T03:39:56;4.40;;;3.97;;
12603;SDS011;6367;52.508;13.284;2022-09-28T03:42:21;4.60;;;4.10;;
12603;SDS011;6367;52.508;13.284;2022-09-28T03:44:47;4.30;;;3.80;;
12603;SDS011;6367;52.508;13.284;2022-09-28T03:47:12;4.40;;;3.90;;
12603;SDS011;6367;52.508;13.284;2022-09-28T03:49:39;4.33;;;3.93;;
12603;SDS011;6367;52.508;13.284;2022-09-28T03:52:05;5.07;;;4.43;;
12603;SDS011;6367;52.508;13.284;2022-09-28T03:54:31;4.90;;;4.07;;
12603;SDS011;6367;52.508;13.284;2022-09-28T03:56:57;7.37;;;5.30;;
12603;SDS011;6367;52.508;13.284;2022-09-28T03:59:22;4.57;;;4.17;;
12603;SDS011;6367;52.508;13.284;2022-09-28T04:01:48;5.00;;;4.60;;
12603;SDS011;6367;52.508;13.284;2022-09-28T04:04:14;6.40;;;4.60;;
12603;SDS011;6367;52.508;13.284;2022-09-28T04:06:40;5.07;;;4.30;;
12603;SDS011;6367;52.508;13.284;2022-09-28T04:09:06;5.37;;;4.70;;
12603;SDS011;6367;52.508;13.284;2022-09-28T04:11:32;4.63;;;3.80;;
12603;SDS011;6367;52.508;13.284;2022-09-28T04:13:58;5.17;;;4.67;;
12603;SDS011;6367;52.508;13.284;2022-09-28T04:16:23;4.80;;;4.40;;
12603;SDS011;6367;52.508;13.284;2022-09-28T04:18:49;5.93;;;4.83;;
12603;SDS011;6367;52.508;13.284;2022-09-28T04:21:15;4.67;;;4.27;;
12603;SDS011;6367;52.508;13.284;2022-09-28T04:23:42;5.37;;;4.80;;
12603;SDS011;6367;52.508;13.284;2022-09-28T04:26:19;4.53;;;4.13;;
12603;SDS011;6367;52.508;13.284;2022-09-28T04:28:46;6.27;;;5.20;;
12603;SDS011;6367;52.508;13.284;2022-09-28T04:32:04;5.43;;;4.90;;
12603;SDS011;6367;52.508;13.284;2022-09-28T04:34:23;4.50;;;4.13;;
12603;SDS011;6367;52.508;13.284;2022-09-28T04:36:49;5.50;;;5.00;;
12603;SDS011;6367;52.508;13.284;2022-09-28T04:39:15;7.37;;;5.90;;
12603;SDS011;6367;52.508;13.284;2022-09-28T04:41:42;5.07;;;4.63;;
12603;SDS011;6367;52.508;13.284;2022-09-28T04:44:08;5.47;;;4.97;;
12603;SDS011;6367;52.508;13.284;2022-09-28T04:46:34;4.77;;;4.37;;
12603;SDS011;6367;52.508;13.284;2022-09-28T04:49:00;5.27;;;4.87;;
12603;SDS011;6367;52.508;13.284;2022-09-28T04:51:26;6.07;;;5.40;;
12603;SDS011;6367;52.508;13.284;2022-09-28T04:53:55;5.73;;;5.13;;
12603;SDS011;6367;52.508;13.284;2022-09-28T04:56:20;6.73;;;6.03;;
12603;SDS011;6367;52.508;13.284;2022-09-28T04:58:46;7.17;;;5.33;;
12603;SDS011;6367;52.508;13.284;2022-09-28T05:01:12;6.13;;;5.53;;
12603;SDS011;6367;52.508;13.284;2022-09-28T05:03:39;6.07;;;5.47;;
12603;SDS011;6367;52.508;13.284;2022-09-28T05:06:06;5.47;;;4.97;;
12603;SDS011;6367;52.508;13.284;2022-09-28T05:08:32;6.43;;;5.83;;
12603;SDS011;6367;52.508;13.284;2022-09-28T05:11:00;6.17;;;5.07;;
12603;SDS011;6367;52.508;13.284;2022-09-28T05:13:27;7.00;;;5.23;;
12603;SDS011;6367;52.508;13.284;2022-09-28T05:15:55;5.20;;;4.73;;
12603;SDS011;6367;52.508;13.284;2022-09-28T05:18:22;5.70;;;5.10;;
12603;SDS011;6367;52.508;13.284;2022-09-28T05:20:48;5.50;;;5.00;;
12603;SDS011;6367;52.508;13.284;2022-09-28T05:23:14;5.57;;;5.03;;
12603;SDS011;6367;52.508;13.284;2022-09-28T05:25:41;5.60;;;5.07;;
12603;SDS011;6367;52.508;13.284;2022-09-28T05:28:07;5.47;;;4.90;;
12603;SDS011;6367;52.508;13.284;2022-09-28T05:30:33;8.30;;;5.43;;
12603;SDS011;6367;52.508;13.284;2022-09-28T05:32:59;5.30;;;4.80;;
12603;SDS011;6367;52.508;13.284;2022-09-28T05:35:25;5.83;;;5.23;;
12603;SDS011;6367;52.508;13.284;2022-09-28T05:37:51;7.67;;;6.07;;
12603;SDS011;6367;52.508;13.284;2022-09-28T05:40:18;6.50;;;5.20;;
12603;SDS011;6367;52.508;13.284;2022-09-28T05:42:44;6.70;;;5.83;;
12603;SDS011;6367;52.508;13.284;2022-09-28T05:45:10;9.73;;;6.00;;
12603;SDS011;6367;52.508;13.284;2022-09-28T05:47:36;5.60;;;5.10;;
12603;SDS011;6367;52.508;13.284;2022-09-28T05:50:03;7.23;;;5.30;;
12603;SDS011;6367;52.508;13.284;2022-09-28T05:52:30;5.73;;;5.13;;
12603;SDS011;6367;52.508;13.284;2022-09-28T05:54:55;5.40;;;4.90;;
12603;SDS011;6367;52.508;13.284;2022-09-28T05:57:21;6.53;;;5.90;;
12603;SDS011;6367;52.508;13.284;2022-09-28T05:59:46;7.23;;;6.53;;
12603;SDS011;6367;52.508;13.284;2022-09-28T06:02:12;5.87;;;5.00;;
12603;SDS011;6367;52.508;13.284;2022-09-28T06:04:37;5.27;;;4.77;;
12603;SDS011;6367;52.508;13.284;2022-09-28T06:07:03;8.73;;;5.50;;
12603;SDS011;6367;52.508;13.284;2022-09-28T06:09:29;5.60;;;5.10;;
12603;SDS011;6367;52.508;13.284;2022-09-28T06:11:56;7.00;;;5.40;;
12603;SDS011;6367;52.508;13.284;2022-09-28T06:14:23;7.03;;;5.63;;
12603;SDS011;6367;52.508;13.284;2022-09-28T06:16:49;6.67;;;6.07;;
12603;SDS011;6367;52.508;13.284;2022-09-28T06:19:16;5.87;;;5.30;;
12603;SDS011;6367;52.508;13.284;2022-09-28T06:21:41;6.43;;;5.83;;
12603;SDS011;6367;52.508;13.284;2022-09-28T06:24:07;6.87;;;6.17;;
12603;SDS011;6367;52.508;13.284;2022-09-28T06:26:32;5.67;;;5.13;;
12603;SDS011;6367;52.508;13.284;2022-09-28T06:28:58;7.30;;;5.77;;
12603;SDS011;6367;52.508;13.284;2022-09-28T06:31:24;6.63;;;5.57;;
12603;SDS011;6367;52.508;13.284;2022-09-28T06:33:51;6.23;;;5.37;;
12603;SDS011;6367;52.508;13.284;2022-09-28T06:36:17;5.63;;;5.13;;
12603;SDS011;6367;52.508;13.284;2022-09-28T06:38:44;7.70;;;6.27;;
12603;SDS011;6367;52.508;13.284;2022-09-28T06:41:10;6.00;;;5.40;;
12603;SDS011;6367;52.508;13.284;2022-09-28T06:43:36;6.10;;;5.50;;
12603;SDS011;6367;52.508;13.284;2022-09-28T06:46:05;6.63;;;5.70;;
12603;SDS011;6367;52.508;13.284;2022-09-28T06:48:33;8.83;;;6.07;;
12603;SDS011;6367;52.508;13.284;2022-09-28T06:50:59;7.50;;;5.87;;
12603;SDS011;6367;52.508;13.284;2022-09-28T06:53:26;11.63;;;8.07;;
12603;SDS011;6367;52.508;13.284;2022-09-28T06:55:53;7.07;;;6.37;;
12603;SDS011;6367;52.508;13.284;2022-09-28T06:58:20;7.33;;;5.83;;
12603;SDS011;6367;52.508;13.284;2022-09-28T07:00:47;11.37;;;6.67;;
12603;SDS011;6367;52.508;13.284;2022-09-28T07:03:18;9.07;;;6.37;;
12603;SDS011;6367;52.508;13.284;2022-09-28T07:05:49;7.77;;;6.97;;
12603;SDS011;6367;52.508;13.284;2022-09-28T07:08:19;8.30;;;6.70;;
12603;SDS011;6367;52.508;13.284;2022-09-28T07:10:48;7.00;;;6.30;;
12603;SDS011;6367;52.508;13.284;2022-09-28T07:13:20;8.93;;;6.50;;
12603;SDS011;6367;52.508;13.284;2022-09-28T07:15:47;6.27;;;5.67;;
12603;SDS011;6367;52.508;13.284;2022-09-28T07:18:12;7.27;;;6.57;;
12603;SDS011;6367;52.508;13.284;2022-09-28T07:20:38;7.73;;;6.50;;
12603;SDS011;6367;52.508;13.284;2022-09-28T07:23:05;12.87;;;6.70;;
12603;SDS011;6367;52.508;13.284;2022-09-28T07:25:32;6.93;;;6.23;;
12603;SDS011;6367;52.508;13.284;2022-09-28T07:28:00;7.03;;;6.23;;
12603;SDS011;6367;52.508;13.284;2022-09-28T07:30:28;7.90;;;6.50;;
12603;SDS011;6367;52.508;13.284;2022-09-28T07:32:59;6.53;;;5.73;;
12603;SDS011;6367;52.508;13.284;2022-09-28T07:35:25;7.70;;;6.90;;
12603;SDS011;6367;52.508;13.284;2022-09-28T07:37:56;6.73;;;6.03;;
12603;SDS011;6367;52.508;13.284;2022-09-28T07:40:24;6.60;;;6.00;;
12603;SDS011;6367;52.508;13.284;2022-09-28T07:43:09;8.27;;;6.97;;
12603;SDS011;6367;52.508;13.284;2022-09-28T07:45:36;9.20;;;7.97;;
12603;SDS011;6367;52.508;13.284;2022-09-28T07:48:02;7.80;;;7.00;;
12603;SDS011;6367;52.508;13.284;2022-09-28T07:50:28;7.47;;;6.77;;
12603;SDS011;6367;52.508;13.284;2022-09-28T07:52:54;7.23;;;6.53;;
12603;SDS011;6367;52.508;13.284;2022-09-28T07:55:21;7.40;;;6.70;;
12603;SDS011;6367;52.508;13.284;2022-09-28T07:57:52;8.23;;;7.00;;
12603;SDS011;6367;52.508;13.284;2022-09-28T08:00:25;7.20;;;6.50;;
12603;SDS011;6367;52.508;13.284;2022-09-28T08:02:51;8.13;;;7.20;;
12603;SDS011;6367;52.508;13.284;2022-09-28T08:05:17;6.80;;;6.20;;
12603;SDS011;6367;52.508;13.284;2022-09-28T08:07:43;8.03;;;7.33;;
12603;SDS011;6367;52.508;13.284;2022-09-28T08:10:08;8.80;;;7.80;;
12603;SDS011;6367;52.508;13.284;2022-09-28T08:12:35;8.47;;;7.57;;
12603;SDS011;6367;52.508;13.284;2022-09-28T08:15:00;8.40;;;6.70;;
12603;SDS011;6367;52.508;13.284;2022-09-28T08:17:26;7.37;;;6.67;;
12603;SDS011;6367;52.508;13.284;2022-09-28T08:19:54;8.33;;;7.10;;
12603;SDS011;6367;52.508;13.284;2022-09-28T08:22:38;6.77;;;6.10;;
12603;SDS011;6367;52.508;13.284;2022-09-28T08:25:04;6.90;;;6.30;;
12603;SDS011;6367;52.508;13.284;2022-09-28T08:27:30;8.63;;;6.63;;
12603;SDS011;6367;52.508;13.284;2022-09-28T08:29:56;8.00;;;7.20;;
12603;SDS011;6367;52.508;13.284;2022-09-28T08:32:21;7.60;;;6.90;;
12603;SDS011;6367;52.508;13.284;2022-09-28T08:34:48;7.90;;;7.10;;
12603;SDS011;6367;52.508;13.284;2022-09-28T08:37:14;6.57;;;6.07;;
12603;SDS011;6367;52.508;13.284;2022-09-28T08:39:39;11.63;;;10.40;;
12603;SDS011;6367;52.508;13.284;2022-09-28T08:42:28;8.60;;;7.80;;
12603;SDS011;6367;52.508;13.284;2022-09-28T08:44:56;8.00;;;7.27;;
12603;SDS011;6367;52.508;13.284;2022-09-28T08:47:44;8.87;;;7.20;;
12603;SDS011;6367;52.508;13.284;2022-09-28T08:50:53;7.50;;;6.70;;
12603;SDS011;6367;52.508;13.284;2022-09-28T08:53:38;8.43;;;7.57;;
12603;SDS011;6367;52.508;13.284;2022-09-28T08:56:25;8.27;;;7.30;;
12603;SDS011;6367;52.508;13.284;2022-09-28T08:58:56;8.57;;;7.77;;
12603;SDS011;6367;52.508;13.284;2022-09-28T09:01:27;8.23;;;7.43;;
12603;SDS011;6367;52.508;13.284;2022-09-28T09:03:57;6.20;;;5.70;;
12603;SDS011;6367;52.508;13.284;2022-09-28T09:06:27;7.40;;;6.70;;
12603;SDS011;6367;52.508;13.284;2022-09-28T09:09:31;8.23;;;7.43;;
12603;SDS011;6367;52.508;13.284;2022-09-28T09:12:24;6.97;;;6.27;;
12603;SDS011;6367;52.508;13.284;2022-09-28T09:18:13;5.67;;;5.17;;
12603;SDS011;6367;52.508;13.284;2022-09-28T09:23:37;5.43;;;3.63;;
12603;SDS011;6367;52.508;13.284;2022-09-28T09:26:18;4.00;;;3.70;;
12603;SDS011;6367;52.508;13.284;2022-09-28T09:37:29;3.57;;;3.23;;
12603;SDS011;6367;52.508;13.284;2022-09-28T09:45:56;4.10;;;3.67;;
12603;SDS011;6367;52.508;13.284;2022-09-28T09:51:19;4.60;;;2.40;;
12603;SDS011;6367;52.508;13.284;2022-09-28T09:53:55;3.83;;;2.30;;
12603;SDS011;6367;52.508;13.284;2022-09-28T09:56:35;3.20;;;2.40;;
12603;SDS011;6367;52.508;13.284;2022-09-28T09:59:10;2.00;;;1.90;;
12603;SDS011;6367;52.508;13.284;2022-09-28T10:01:42;2.47;;;2.23;;
12603;SDS011;6367;52.508;13.284;2022-09-28T10:04:42;2.00;;;1.80;;
12603;SDS011;6367;52.508;13.284;2022-09-28T10:07:04;3.20;;;2.00;;
12603;SDS011;6367;52.508;13.284;2022-09-28T10:09:34;1.80;;;1.70;;
12603;SDS011;6367;52.508;13.284;2022-09-28T10:12:07;1.67;;;1.50;;
12603;SDS011;6367;52.508;13.284;2022-09-28T10:14:35;1.53;;;1.40;;
12603;SDS011;6367;52.508;13.284;2022-09-28T10:17:01;3.77;;;1.63;;
12603;SDS011;6367;52.508;13.284;2022-09-28T10:19:29;4.50;;;1.93;;
12603;SDS011;6367;52.508;13.284;2022-09-28T10:21:57;1.50;;;1.40;;
12603;SDS011;6367;52.508;13.284;2022-09-28T10:24:39;2.50;;;1.70;;
12603;SDS011;6367;52.508;13.284;2022-09-28T10:27:28;1.57;;;1.47;;
12603;SDS011;6367;52.508;13.284;2022-09-28T10:30:02;2.57;;;2.17;;
12603;SDS011;6367;52.508;13.284;2022-09-28T10:32:39;2.50;;;1.73;;
12603;SDS011;6367;52.508;13.284;2022-09-28T10:35:11;2.43;;;1.47;;
12603;SDS011;6367;52.508;13.284;2022-09-28T10:45:46;2.47;;;1.50;;
12603;SDS011;6367;52.508;13.284;2022-09-28T10:48:19;2.30;;;1.50;;
12603;SDS011;6367;52.508;13.284;2022-09-28T10:50:57;3.63;;;1.30;;
12603;SDS011;6367;52.508;13.284;2022-09-28T10:53:24;1.40;;;1.30;;
12603;SDS011;6367;52.508;13.284;2022-09-28T10:55:57;1.37;;;1.27;;
12603;SDS011;6367;52.508;13.284;2022-09-28T10:58:38;1.57;;;1.20;;
12603;SDS011;6367;52.508;13.284;2022-09-28T11:01:13;2.03;;;1.33;;
12603;SDS011;6367;52.508;13.284;2022-09-28T11:04:02;1.43;;;1.30;;
12603;SDS011;6367;52.508;13.284;2022-09-28T11:06:32;3.33;;;1.40;;
12603;SDS011;6367;52.508;13.284;2022-09-28T11:09:20;2.00;;;1.73;;
12603;SDS011;6367;52.508;13.284;2022-09-28T11:11:50;2.43;;;1.90;;
12603;SDS011;6367;52.508;13.284;2022-09-28T11:19:59;2.00;;;1.90;;
12603;SDS011;6367;52.508;13.284;2022-09-28T11:25:18;2.53;;;2.33;;
12603;SDS011;6367;52.508;13.284;2022-09-28T11:30:38;3.83;;;2.10;;
12603;SDS011;6367;52.508;13.284;2022-09-28T11:33:18;4.43;;;2.47;;
12603;SDS011;6367;52.508;13.284;2022-09-28T11:44:29;2.93;;;2.30;;
12603;SDS011;6367;52.508;13.284;2022-09-28T11:57:54;2.40;;;2.20;;
12603;SDS011;6367;52.508;13.284;2022-09-28T12:00:25;2.00;;;1.80;;
12603;SDS011;6367;52.508;13.284;2022-09-28T12:02:59;3.23;;;1.90;;
12603;SDS011;6367;52.508;13.284;2022-09-28T12:05:32;2.00;;;1.67;;
12603;SDS011;6367;52.508;13.284;2022-09-28T12:08:20;2.47;;;1.93;;
12603;SDS011;6367;52.508;13.284;2022-09-28T12:11:00;2.77;;;1.20;;
12603;SDS011;6367;52.508;13.284;2022-09-28T12:13:39;2.37;;;1.53;;
12603;SDS011;6367;52.508;13.284;2022-09-28T12:18:48;1.27;;;1.17;;
12603;SDS011;6367;52.508;13.284;2022-09-28T12:23:49;1.33;;;1.23;;
12603;SDS011;6367;52.508;13.284;2022-09-28T12:26:31;1.20;;;1.10;;
12603;SDS011;6367;52.508;13.284;2022-09-28T12:29:37;1.27;;;1.00;;
12603;SDS011;6367;52.508;13.284;2022-09-28T12:35:01;1.70;;;1.57;;
12603;SDS011;6367;52.508;13.284;2022-09-28T12:37:39;3.87;;;1.23;;
12603;SDS011;6367;52.508;13.284;2022-09-28T12:40:43;3.50;;;1.07;;
12603;SDS011;6367;52.508;13.284;2022-09-28T12:43:26;0.90;;;0.90;;
12603;SDS011;6367;52.508;13.284;2022-09-28T12:46:01;1.03;;;0.70;;
12603;SDS011;6367;52.508;13.284;2022-09-28T12:57:01;1.23;;;0.90;;
12603;SDS011;6367;52.508;13.284;2022-09-28T12:59:57;1.20;;;1.10;;
12603;SDS011;6367;52.508;13.284;2022-09-28T13:05:06;0.80;;;0.80;;
12603;SDS011;6367;52.508;13.284;2022-09-28T13:11:35;2.80;;;0.90;;
12603;SDS011;6367;52.508;13.284;2022-09-28T13:16:50;0.73;;;0.73;;
12603;SDS011;6367;52.508;13.284;2022-09-28T13:25:19;0.80;;;0.77;;
12603;SDS011;6367;52.508;13.284;2022-09-28T13:27:52;0.80;;;0.80;;
12603;SDS011;6367;52.508;13.284;2022-09-28T13:30:22;1.10;;;0.70;;
12603;SDS011;6367;52.508;13.284;2022-09-28T13:32:49;1.30;;;0.90;;
12603;SDS011;6367;52.508;13.284;2022-09-28T13:35:18;0.80;;;0.80;;
12603;SDS011;6367;52.508;13.284;2022-09-28T13:37:44;1.03;;;0.93;;
12603;SDS011;6367;52.508;13.284;2022-09-28T13:40:09;0.63;;;0.63;;
12603;SDS011;6367;52.508;13.284;2022-09-28T13:45:16;0.80;;;0.80;;
12603;SDS011;6367;52.508;13.284;2022-09-28T13:48:13;0.90;;;0.70;;
12603;SDS011;6367;52.508;13.284;2022-09-28T13:51:05;0.90;;;0.73;;
12603;SDS011;6367;52.508;13.284;2022-09-28T13:59:13;0.70;;;0.70;;
12603;SDS011;6367;52.508;13.284;2022-09-28T14:02:01;1.17;;;1.07;;
12603;SDS011;6367;52.508;13.284;2022-09-28T14:05:30;0.73;;;0.70;;
12603;SDS011;6367;52.508;13.284;2022-09-28T14:10:15;1.13;;;0.93;;
12603;SDS011;6367;52.508;13.284;2022-09-28T14:12:47;0.93;;;0.90;;
12603;SDS011;6367;52.508;13.284;2022-09-28T14:20:48;1.13;;;0.70;;
12603;SDS011;6367;52.508;13.284;2022-09-28T14:26:02;1.23;;;0.70;;
12603;SDS011;6367;52.508;13.284;2022-09-28T14:31:35;0.80;;;0.70;;
12603;SDS011;6367;52.508;13.284;2022-09-28T14:34:17;0.90;;;0.70;;
12603;SDS011;6367;52.508;13.284;2022-09-28T14:36:53;0.70;;;0.70;;
12603;SDS011;6367;52.508;13.284;2022-09-28T14:39:38;0.90;;;0.90;;
12603;SDS011;6367;52.508;13.284;2022-09-28T14:42:42;2.10;;;1.10;;
12603;SDS011;6367;52.508;13.284;2022-09-28T14:45:48;0.90;;;0.90;;
12603;SDS011;6367;52.508;13.284;2022-09-28T14:48:14;1.30;;;1.10;;
12603;SDS011;6367;52.508;13.284;2022-09-28T14:50:44;0.80;;;0.80;;
12603;SDS011;6367;52.508;13.284;2022-09-28T14:53:21;1.10;;;1.00;;
12603;SDS011;6367;52.508;13.284;2022-09-28T14:55:50;1.57;;;1.47;;
12603;SDS011;6367;52.508;13.284;2022-09-28T14:58:23;1.23;;;1.13;;
12603;SDS011;6367;52.508;13.284;2022-09-28T15:00:54;4.60;;;1.20;;
12603;SDS011;6367;52.508;13.284;2022-09-28T15:03:41;0.90;;;0.90;;
12603;SDS011;6367;52.508;13.284;2022-09-28T15:06:13;0.90;;;0.90;;
12603;SDS011;6367;52.508;13.284;2022-09-28T15:08:40;1.10;;;0.90;;
12603;SDS011;6367;52.508;13.284;2022-09-28T15:11:09;2.80;;;1.00;;
12603;SDS011;6367;52.508;13.284;2022-09-28T15:13:38;1.37;;;0.90;;
12603;SDS011;6367;52.508;13.284;2022-09-28T15:16:06;2.13;;;1.20;;
12603;SDS011;6367;52.508;13.284;2022-09-28T15:21:09;1.57;;;1.30;;
12603;SDS011;6367;52.508;13.284;2022-09-28T15:23:37;1.40;;;1.30;;
12603;SDS011;6367;52.508;13.284;2022-09-28T15:26:05;1.47;;;1.00;;
12603;SDS011;6367;52.508;13.284;2022-09-28T15:28:43;1.33;;;1.07;;
12603;SDS011;6367;52.508;13.284;2022-09-28T15:31:14;1.30;;;1.20;;
12603;SDS011;6367;52.508;13.284;2022-09-28T15:33:42;1.90;;;1.80;;
12603;SDS011;6367;52.508;13.284;2022-09-28T15:36:47;1.53;;;1.43;;
12603;SDS011;6367;52.508;13.284;2022-09-28T15:39:13;1.83;;;1.50;;
12603;SDS011;6367;52.508;13.284;2022-09-28T15:41:43;1.53;;;1.43;;
12603;SDS011;6367;52.508;13.284;2022-09-28T15:46:37;2.00;;;1.90;;
12603;SDS011;6367;52.508;13.284;2022-09-28T15:49:05;2.30;;;2.10;;
12603;SDS011;6367;52.508;13.284;2022-09-28T15:51:44;2.10;;;1.90;;
12603;SDS011;6367;52.508;13.284;2022-09-28T15:54:14;2.20;;;2.10;;
12603;SDS011;6367;52.508;13.284;2022-09-28T15:56:55;1.73;;;1.63;;
12603;SDS011;6367;52.508;13.284;2022-09-28T16:04:43;1.90;;;1.57;;
12603;SDS011;6367;52.508;13.284;2022-09-28T16:12:32;2.53;;;1.70;;
12603;SDS011;6367;52.508;13.284;2022-09-28T16:17:35;2.00;;;1.90;;
12603;SDS011;6367;52.508;13.284;2022-09-28T16:20:17;2.90;;;2.00;;
12603;SDS011;6367;52.508;13.284;2022-09-28T16:22:51;2.80;;;2.57;;
12603;SDS011;6367;52.508;13.284;2022-09-28T16:25:18;2.20;;;2.10;;
12603;SDS011;6367;52.508;13.284;2022-09-28T16:27:50;2.20;;;2.00;;
12603;SDS011;6367;52.508;13.284;2022-09-28T16:35:51;2.77;;;2.57;;
12603;SDS011;6367;52.508;13.284;2022-09-28T16:38:17;3.20;;;3.00;;
12603;SDS011;6367;52.508;13.284;2022-09-28T16:40:44;3.13;;;2.93;;
12603;SDS011;6367;52.508;13.284;2022-09-28T16:43:25;3.10;;;2.80;;
12603;SDS011;6367;52.508;13.284;2022-09-28T16:45:53;2.97;;;2.77;;
12603;SDS011;6367;52.508;13.284;2022-09-28T16:48:41;2.70;;;2.50;;
12603;SDS011;6367;52.508;13.284;2022-09-28T16:51:14;3.10;;;2.80;;
12603;SDS011;6367;52.508;13.284;2022-09-28T16:53:41;2.73;;;2.53;;
12603;SDS011;6367;52.508;13.284;2022-09-28T16:56:26;2.87;;;2.67;;
12603;SDS011;6367;52.508;13.284;2022-09-28T16:58:52;3.30;;;3.07;;
12603;SDS011;6367;52.508;13.284;2022-09-28T17:01:18;2.57;;;2.47;;
12603;SDS011;6367;52.508;13.284;2022-09-28T17:03:45;4.13;;;3.30;;
12603;SDS011;6367;52.508;13.284;2022-09-28T17:06:12;3.77;;;3.47;;
12603;SDS011;6367;52.508;13.284;2022-09-28T17:08:39;2.97;;;2.77;;
12603;SDS011;6367;52.508;13.284;2022-09-28T17:11:07;4.03;;;3.53;;
12603;SDS011;6367;52.508;13.284;2022-09-28T17:13:37;3.30;;;3.10;;
12603;SDS011;6367;52.508;13.284;2022-09-28T17:16:03;3.60;;;3.17;;
12603;SDS011;6367;52.508;13.284;2022-09-28T17:18:32;3.53;;;3.23;;
12603;SDS011;6367;52.508;13.284;2022-09-28T17:21:02;3.50;;;3.20;;
12603;SDS011;6367;52.508;13.284;2022-09-28T17:23:28;3.23;;;3.03;;
12603;SDS011;6367;52.508;13.284;2022-09-28T17:25:54;3.67;;;3.37;;
12603;SDS011;6367;52.508;13.284;2022-09-28T17:28:30;3.23;;;3.03;;
12603;SDS011;6367;52.508;13.284;2022-09-28T17:30:57;3.60;;;3.30;;
12603;SDS011;6367;52.508;13.284;2022-09-28T17:33:23;3.83;;;3.53;;
12603;SDS011;6367;52.508;13.284;2022-09-28T17:35:50;3.17;;;2.97;;
12603;SDS011;6367;52.508;13.284;2022-09-28T17:38:18;3.43;;;3.13;;
12603;SDS011;6367;52.508;13.284;2022-09-28T17:40:43;3.43;;;3.13;;
12603;SDS011;6367;52.508;13.284;2022-09-28T17:43:10;3.27;;;3.07;;
12603;SDS011;6367;52.508;13.284;2022-09-28T17:45:36;3.30;;;3.00;;
12603;SDS011;6367;52.508;13.284;2022-09-28T17:48:05;3.77;;;3.23;;
12603;SDS011;6367;52.508;13.284;2022-09-28T17:50:33;4.57;;;4.10;;
12603;SDS011;6367;52.508;13.284;2022-09-28T17:52:59;5.07;;;3.30;;
12603;SDS011;6367;52.508;13.284;2022-09-28T17:55:30;4.10;;;3.60;;
12603;SDS011;6367;52.508;13.284;2022-09-28T17:57:56;4.37;;;3.00;;